Time;durP1;ratioP1;P1;durP2;ratioP2;P2;SDS_P1;SDS_P2;PMS_P1;PMS_P2;Temp;Humidity;BMP_temperature;BMP_pressure;BME280_temperature;BME280_humidity;BME280_pressure;Samples;Min_cycle;Max_cycle;Signal;HPM_P1;HPM_P2
2023/08/12 00:02:20;;;;;;;4.45;2.90;;;;;;;;;;5109564;27;42009;-65
2023/08/12 00:04:48;;;;;;;4.80;3.50;;;;;;;;;;5109375;27;41329;-65
2023/08/12 00:07:16;;;;;;;5.85;3.10;;;;;;;;;;5108293;27;42033;-66
2023/08/12 00:09:49;;;;;;;4.85;3.00;;;;;;;;;;5108921;27;42166;-65
2023/08/12 00:12:18;;;;;;;5.35;3.22;;;;;;;;;;5108003;27;40413;-65
2023/08/12 00:14:49;;;;;;;6.80;4.30;;;;;;;;;;5108172;27;42294;-65
2023/08/12 00:17:19;;;;;;;5.78;3.33;;;;;;;;;;5109153;27;42677;-66
2023/08/12 00:19:53;;;;;;;4.22;3.10;;;;;;;;;;5109526;27;42815;-65
2023/08/12 00:22:22;;;;;;;4.47;3.60;;;;;;;;;;5108395;27;42274;-65
2023/08/12 00:24:51;;;;;;;4.80;3.13;;;;;;;;;;5109143;27;40514;-65
2023/08/12 00:27:20;;;;;;;4.95;3.47;;;;;;;;;;5108479;27;41388;-65
2023/08/12 00:29:55;;;;;;;5.07;3.25;;;;;;;;;;5109013;28;43771;-65
2023/08/12 00:32:23;;;;;;;4.13;3.28;;;;;;;;;;5108970;28;40344;-65
2023/08/12 00:34:51;;;;;;;4.38;3.38;;;;;;;;;;5106968;28;41482;-65
2023/08/12 00:37:19;;;;;;;4.55;3.80;;;;;;;;;;5108803;28;41736;-65
2023/08/12 00:39:47;;;;;;;4.47;3.53;;;;;;;;;;5109469;28;40094;-65
2023/08/12 00:42:15;;;;;;;4.20;3.30;;;;;;;;;;5106826;27;40866;-65
2023/08/12 00:44:44;;;;;;;5.55;4.40;;;;;;;;;;5108463;28;41341;-65
2023/08/12 00:47:12;;;;;;;4.43;3.72;;;;;;;;;;5109014;27;41564;-65
2023/08/12 00:49:43;;;;;;;4.15;3.40;;;;;;;;;;5106349;27;41308;-66
2023/08/12 00:52:12;;;;;;;4.22;3.53;;;;;;;;;;5106673;28;39101;-65
2023/08/12 00:54:39;;;;;;;5.22;4.00;;;;;;;;;;5105991;28;40111;-66
2023/08/12 00:57:08;;;;;;;4.40;3.40;;;;;;;;;;5108150;28;43063;-65
2023/08/12 00:59:36;;;;;;;3.78;3.30;;;;;;;;;;5106897;28;38990;-65
2023/08/12 01:02:06;;;;;;;3.58;3.28;;;;;;;;;;5108133;27;40835;-66
2023/08/12 01:04:34;;;;;;;4.28;3.88;;;;;;;;;;5107273;28;40036;-65
2023/08/12 01:07:03;;;;;;;4.38;3.42;;;;;;;;;;5108639;28;42171;-65
2023/08/12 01:09:31;;;;;;;3.88;3.30;;;;;;;;;;5108217;27;42291;-65
2023/08/12 01:12:06;;;;;;;5.25;4.00;;;;;;;;;;5108461;28;40948;-65
2023/08/12 01:14:36;;;;;;;4.47;3.65;;;;;;;;;;5105987;28;42600;-65
2023/08/12 01:17:06;;;;;;;3.65;3.20;;;;;;;;;;5108228;28;42341;-65
2023/08/12 01:19:35;;;;;;;4.90;3.55;;;;;;;;;;5107564;27;40681;-65
2023/08/12 01:22:04;;;;;;;4.40;3.88;;;;;;;;;;5108537;27;41454;-65
2023/08/12 01:24:36;;;;;;;7.30;5.18;;;;;;;;;;5107155;27;41956;-66
2023/08/12 01:27:04;;;;;;;6.10;4.60;;;;;;;;;;5106255;28;42597;-65
2023/08/12 01:29:32;;;;;;;4.70;4.22;;;;;;;;;;5106128;27;41905;-65
2023/08/12 01:32:03;;;;;;;4.68;4.18;;;;;;;;;;5106993;28;41180;-65
2023/08/12 01:34:34;;;;;;;4.38;3.97;;;;;;;;;;5105555;28;40573;-65
2023/08/12 01:37:02;;;;;;;3.70;3.40;;;;;;;;;;5106690;28;40707;-65
2023/08/12 01:39:30;;;;;;;4.00;3.60;;;;;;;;;;5107029;27;41374;-65
2023/08/12 01:42:00;;;;;;;6.05;4.43;;;;;;;;;;5106420;28;40258;-66
2023/08/12 01:44:28;;;;;;;6.18;4.35;;;;;;;;;;5105813;28;40399;-65
2023/08/12 01:46:56;;;;;;;5.35;4.15;;;;;;;;;;5107963;28;40369;-65
2023/08/12 01:49:24;;;;;;;4.90;3.78;;;;;;;;;;5107499;28;40585;-65
2023/08/12 01:51:52;;;;;;;4.55;4.15;;;;;;;;;;5106614;27;39900;-65
2023/08/12 01:54:20;;;;;;;4.85;4.28;;;;;;;;;;5107959;27;42120;-65
2023/08/12 01:56:48;;;;;;;4.25;3.85;;;;;;;;;;5107403;28;42306;-65
2023/08/12 01:59:17;;;;;;;4.72;3.88;;;;;;;;;;5107230;27;41421;-65
2023/08/12 02:01:45;;;;;;;5.20;4.45;;;;;;;;;;5107095;28;41129;-65
2023/08/12 02:04:13;;;;;;;5.25;4.75;;;;;;;;;;5107642;28;41996;-65
2023/08/12 02:06:42;;;;;;;7.65;5.03;;;;;;;;;;5106136;27;39916;-65
2023/08/12 02:09:10;;;;;;;8.18;5.28;;;;;;;;;;5106778;27;40354;-65
2023/08/12 02:11:38;;;;;;;4.72;3.90;;;;;;;;;;5106266;27;39301;-65
2023/08/12 02:14:06;;;;;;;4.93;4.28;;;;;;;;;;5106966;27;43147;-65
2023/08/12 02:16:35;;;;;;;4.90;4.35;;;;;;;;;;5105489;28;41522;-65
2023/08/12 02:19:03;;;;;;;5.57;4.82;;;;;;;;;;5107393;27;41085;-65
2023/08/12 02:21:31;;;;;;;7.03;5.70;;;;;;;;;;5105305;27;42505;-65
2023/08/12 02:24:00;;;;;;;5.93;5.22;;;;;;;;;;5107491;27;42087;-66
2023/08/12 02:26:28;;;;;;;6.18;5.35;;;;;;;;;;5105536;28;38794;-65
2023/08/12 02:28:56;;;;;;;5.60;4.45;;;;;;;;;;5105742;27;40130;-66
2023/08/12 02:31:24;;;;;;;6.20;4.82;;;;;;;;;;5107190;28;39996;-65
2023/08/12 02:33:54;;;;;;;4.68;4.18;;;;;;;;;;5105252;28;40334;-65
2023/08/12 02:36:22;;;;;;;5.82;4.88;;;;;;;;;;5108374;27;42147;-65
2023/08/12 02:38:50;;;;;;;9.10;5.85;;;;;;;;;;5110912;28;41423;-65
2023/08/12 02:41:18;;;;;;;5.60;4.80;;;;;;;;;;5110091;28;41715;-65
2023/08/12 02:43:46;;;;;;;7.90;4.85;;;;;;;;;;5109200;28;41202;-66
2023/08/12 02:46:15;;;;;;;6.28;4.82;;;;;;;;;;5109132;28;39581;-65
2023/08/12 02:48:43;;;;;;;7.07;5.15;;;;;;;;;;5109965;28;42543;-65
2023/08/12 02:51:13;;;;;;;5.95;5.35;;;;;;;;;;5110720;28;42908;-65
2023/08/12 02:53:41;;;;;;;5.50;4.68;;;;;;;;;;5109852;28;42167;-66
2023/08/12 02:56:09;;;;;;;6.88;5.18;;;;;;;;;;5126106;27;40665;-65
2023/08/12 02:58:37;;;;;;;8.38;6.75;;;;;;;;;;5110386;28;41026;-65
2023/08/12 03:01:06;;;;;;;5.55;4.45;;;;;;;;;;5109269;28;40162;-65
2023/08/12 03:03:34;;;;;;;5.78;5.18;;;;;;;;;;5107901;28;41990;-65
2023/08/12 03:06:02;;;;;;;6.22;5.63;;;;;;;;;;5110987;28;40357;-65
2023/08/12 03:08:32;;;;;;;5.88;5.25;;;;;;;;;;5108479;28;41344;-65
2023/08/12 03:11:00;;;;;;;6.60;5.13;;;;;;;;;;5108092;28;41847;-65
2023/08/12 03:13:29;;;;;;;8.50;7.63;;;;;;;;;;5110496;28;41273;-65
2023/08/12 03:15:58;;;;;;;8.50;6.32;;;;;;;;;;5108888;28;40674;-65
2023/08/12 03:18:26;;;;;;;6.47;5.85;;;;;;;;;;5108745;28;39175;-65
2023/08/12 03:20:55;;;;;;;6.72;5.95;;;;;;;;;;5108563;28;40209;-65
2023/08/12 03:23:25;;;;;;;7.60;6.57;;;;;;;;;;5107668;28;40683;-65
2023/08/12 03:25:55;;;;;;;7.95;5.63;;;;;;;;;;5109405;27;39698;-66
2023/08/12 03:28:23;;;;;;;5.70;5.13;;;;;;;;;;5108568;28;40236;-65
2023/08/12 03:30:52;;;;;;;5.97;5.15;;;;;;;;;;5108372;27;40541;-65
2023/08/12 03:33:22;;;;;;;7.03;5.38;;;;;;;;;;5108223;28;40233;-65
2023/08/12 03:35:50;;;;;;;6.25;5.65;;;;;;;;;;5108596;28;40475;-65
2023/08/12 03:38:18;;;;;;;6.38;5.30;;;;;;;;;;5098023;27;40789;-65
2023/08/12 03:40:47;;;;;;;6.20;5.60;;;;;;;;;;5119291;27;40307;-65
2023/08/12 03:43:18;;;;;;;6.70;5.90;;;;;;;;;;5124777;27;42960;-65
2023/08/12 03:45:47;;;;;;;6.40;5.50;;;;;;;;;;5107633;28;39019;-65
2023/08/12 03:48:18;;;;;;;7.03;5.28;;;;;;;;;;5107833;27;40186;-65
2023/08/12 03:50:47;;;;;;;6.93;5.53;;;;;;;;;;5107778;28;40656;-65
2023/08/12 03:53:16;;;;;;;6.03;5.40;;;;;;;;;;5107820;28;39046;-65
2023/08/12 03:55:44;;;;;;;6.88;5.70;;;;;;;;;;5108544;28;41058;-65
2023/08/12 03:58:15;;;;;;;7.38;5.70;;;;;;;;;;5108255;28;40760;-66
2023/08/12 04:00:44;;;;;;;6.97;5.28;;;;;;;;;;5107455;28;41413;-65
2023/08/12 04:03:15;;;;;;;7.25;5.35;;;;;;;;;;5108314;28;41714;-65
2023/08/12 04:05:51;;;;;;;6.95;5.30;;;;;;;;;;5107465;28;39129;-65
2023/08/12 04:08:20;;;;;;;6.45;5.47;;;;;;;;;;5105449;27;40246;-65
2023/08/12 04:10:48;;;;;;;6.15;4.95;;;;;;;;;;5104670;27;43429;-65
2023/08/12 04:13:16;;;;;;;8.60;6.18;;;;;;;;;;5112214;27;40950;-65
2023/08/12 04:15:48;;;;;;;5.43;4.75;;;;;;;;;;5112824;27;42653;-65
2023/08/12 04:18:16;;;;;;;5.38;4.88;;;;;;;;;;5117509;27;42794;-65
2023/08/12 04:20:45;;;;;;;5.05;4.45;;;;;;;;;;5106992;28;38751;-65
2023/08/12 04:23:13;;;;;;;5.88;5.28;;;;;;;;;;5109279;28;43373;-65
2023/08/12 04:25:43;;;;;;;5.60;4.80;;;;;;;;;;5124632;27;38609;-65
2023/08/12 04:28:12;;;;;;;4.90;4.35;;;;;;;;;;5124242;27;41021;-65
2023/08/12 04:30:43;;;;;;;5.72;4.55;;;;;;;;;;5107508;28;40698;-65
2023/08/12 04:33:12;;;;;;;6.80;4.50;;;;;;;;;;5107906;27;38993;-65
2023/08/12 04:35:40;;;;;;;4.60;4.03;;;;;;;;;;5123651;27;44665;-65
2023/08/12 04:38:09;;;;;;;5.45;4.65;;;;;;;;;;5107944;28;40663;-65
2023/08/12 04:40:39;;;;;;;5.20;4.38;;;;;;;;;;5106994;28;40540;-65
2023/08/12 04:43:08;;;;;;;6.00;4.07;;;;;;;;;;5108892;28;41929;-65
2023/08/12 04:45:36;;;;;;;6.25;4.80;;;;;;;;;;5106943;28;39197;-65
2023/08/12 04:48:05;;;;;;;4.75;4.00;;;;;;;;;;5107184;28;41311;-65
2023/08/12 04:50:36;;;;;;;4.72;4.22;;;;;;;;;;5091476;28;42008;-66
2023/08/12 04:53:04;;;;;;;5.43;4.20;;;;;;;;;;5106933;28;39916;-65
2023/08/12 04:55:32;;;;;;;5.28;4.07;;;;;;;;;;5121332;27;40251;-65
2023/08/12 04:58:02;;;;;;;6.15;4.00;;;;;;;;;;5107217;28;40955;-65
2023/08/12 05:00:31;;;;;;;4.90;4.15;;;;;;;;;;5106101;27;39070;-65
2023/08/12 05:02:59;;;;;;;6.25;4.68;;;;;;;;;;5122249;27;40263;-65
2023/08/12 05:05:27;;;;;;;5.00;4.25;;;;;;;;;;5106974;27;39841;-65
2023/08/12 05:07:57;;;;;;;6.40;4.25;;;;;;;;;;5109099;28;41784;-65
2023/08/12 05:10:25;;;;;;;4.95;3.90;;;;;;;;;;5106031;28;42149;-65
2023/08/12 05:12:54;;;;;;;4.57;3.95;;;;;;;;;;5108735;28;41037;-65
2023/08/12 05:15:22;;;;;;;6.20;4.22;;;;;;;;;;5106764;28;40991;-65
2023/08/12 05:17:50;;;;;;;5.13;3.88;;;;;;;;;;5106109;27;42885;-65
2023/08/12 05:20:22;;;;;;;5.82;4.03;;;;;;;;;;5110193;27;39616;-66
2023/08/12 05:22:50;;;;;;;4.82;3.85;;;;;;;;;;5121028;27;40829;-66
2023/08/12 05:25:19;;;;;;;5.78;4.50;;;;;;;;;;5129231;27;42072;-65
2023/08/12 05:27:47;;;;;;;4.45;3.72;;;;;;;;;;5122243;27;41673;-66
2023/08/12 05:30:15;;;;;;;6.15;4.47;;;;;;;;;;5109344;27;41613;-65
2023/08/12 05:32:43;;;;;;;4.40;3.70;;;;;;;;;;5108376;27;40408;-66
2023/08/12 05:35:11;;;;;;;5.40;4.70;;;;;;;;;;5108517;27;41614;-65
2023/08/12 05:37:39;;;;;;;3.80;3.50;;;;;;;;;;5106565;27;42105;-65
2023/08/12 05:40:08;;;;;;;4.65;4.00;;;;;;;;;;5107819;27;41351;-65
2023/08/12 05:42:38;;;;;;;4.68;4.20;;;;;;;;;;5107057;27;41300;-65
2023/08/12 05:45:07;;;;;;;4.75;3.85;;;;;;;;;;5107909;27;42834;-65
2023/08/12 05:47:35;;;;;;;4.95;4.10;;;;;;;;;;5107501;27;38947;-65
2023/08/12 05:50:04;;;;;;;4.78;4.10;;;;;;;;;;5108721;27;43276;-66
2023/08/12 05:52:32;;;;;;;3.50;3.20;;;;;;;;;;5106796;27;40353;-65
2023/08/12 05:55:00;;;;;;;4.80;3.47;;;;;;;;;;5107489;27;41681;-65
2023/08/12 05:57:28;;;;;;;6.28;3.72;;;;;;;;;;5107396;27;42206;-65
2023/08/12 05:59:58;;;;;;;5.10;3.95;;;;;;;;;;5107533;27;39805;-66
2023/08/12 06:02:26;;;;;;;4.25;3.60;;;;;;;;;;5107431;27;41453;-65
2023/08/12 06:04:54;;;;;;;5.32;3.67;;;;;;;;;;5106389;27;42073;-65
2023/08/12 06:07:23;;;;;;;4.00;3.60;;;;;;;;;;5107625;27;42278;-65
2023/08/12 06:09:51;;;;;;;4.43;3.78;;;;;;;;;;5108042;27;41127;-65
2023/08/12 06:12:19;;;;;;;5.45;3.83;;;;;;;;;;5106888;27;41515;-65
2023/08/12 06:14:47;;;;;;;3.92;3.53;;;;;;;;;;5107560;27;43151;-65
2023/08/12 06:17:16;;;;;;;4.15;3.72;;;;;;;;;;5111368;27;41712;-65
2023/08/12 06:19:44;;;;;;;3.85;3.53;;;;;;;;;;5106946;27;41483;-65
2023/08/12 06:22:12;;;;;;;4.38;3.95;;;;;;;;;;5107553;27;41587;-65
2023/08/12 06:24:40;;;;;;;5.07;3.67;;;;;;;;;;5107314;27;42046;-65
2023/08/12 06:27:08;;;;;;;4.20;3.20;;;;;;;;;;5107411;27;40537;-65
2023/08/12 06:29:36;;;;;;;4.78;4.13;;;;;;;;;;5106846;27;42571;-65
2023/08/12 06:32:05;;;;;;;4.40;3.95;;;;;;;;;;5107212;27;32912;-65
2023/08/12 06:34:34;;;;;;;4.63;3.35;;;;;;;;;;5105741;27;42252;-65
2023/08/12 06:37:02;;;;;;;5.30;4.40;;;;;;;;;;5107462;27;42126;-65
2023/08/12 06:39:30;;;;;;;5.00;3.47;;;;;;;;;;5106927;27;39853;-65
2023/08/12 06:41:58;;;;;;;4.65;4.15;;;;;;;;;;5109043;27;41712;-65
2023/08/12 06:44:27;;;;;;;6.28;4.07;;;;;;;;;;5112189;27;43258;-66
2023/08/12 06:46:54;;;;;;;5.97;3.95;;;;;;;;;;5115244;27;40934;-65
2023/08/12 06:49:23;;;;;;;5.00;3.97;;;;;;;;;;5106065;27;41877;-65
2023/08/12 06:51:52;;;;;;;5.07;3.85;;;;;;;;;;5106622;27;41938;-65
2023/08/12 06:54:22;;;;;;;4.35;3.83;;;;;;;;;;5106684;27;41775;-65
2023/08/12 06:56:50;;;;;;;4.15;3.45;;;;;;;;;;5113124;27;42032;-65
2023/08/12 06:59:18;;;;;;;5.55;3.75;;;;;;;;;;5111384;27;40963;-65
2023/08/12 07:01:46;;;;;;;5.05;3.97;;;;;;;;;;5117169;27;42309;-65
2023/08/12 07:04:14;;;;;;;7.47;5.10;;;;;;;;;;5116431;27;41791;-67
2023/08/12 07:06:42;;;;;;;6.65;5.40;;;;;;;;;;5106373;27;41148;-68
2023/08/12 07:09:12;;;;;;;7.43;6.63;;;;;;;;;;5105998;27;41487;-68
2023/08/12 07:11:40;;;;;;;9.73;6.57;;;;;;;;;;5106324;27;42247;-68
2023/08/12 07:14:08;;;;;;;7.75;6.93;;;;;;;;;;5106760;27;41323;-67
2023/08/12 07:16:36;;;;;;;12.25;7.75;;;;;;;;;;5107976;27;42731;-67
2023/08/12 07:19:04;;;;;;;8.98;7.03;;;;;;;;;;5106594;27;41562;-67
2023/08/12 07:21:32;;;;;;;12.00;6.95;;;;;;;;;;5117943;27;41685;-69
2023/08/12 07:24:00;;;;;;;9.45;6.32;;;;;;;;;;5109572;27;43051;-68
2023/08/12 07:26:32;;;;;;;7.95;6.30;;;;;;;;;;5109660;27;40930;-67
2023/08/12 07:29:00;;;;;;;8.32;6.53;;;;;;;;;;5111234;27;41604;-68
2023/08/12 07:31:28;;;;;;;7.53;6.40;;;;;;;;;;5110769;27;42564;-68
2023/08/12 07:33:56;;;;;;;9.43;5.50;;;;;;;;;;5117601;27;40425;-68
2023/08/12 07:36:24;;;;;;;9.77;6.20;;;;;;;;;;5109755;27;41621;-69
2023/08/12 07:38:52;;;;;;;6.50;5.05;;;;;;;;;;5110731;27;40151;-68
2023/08/12 07:41:20;;;;;;;8.15;5.10;;;;;;;;;;5109555;27;41472;-67
2023/08/12 07:43:49;;;;;;;6.75;5.45;;;;;;;;;;5109445;27;42496;-67
2023/08/12 07:46:18;;;;;;;7.78;5.80;;;;;;;;;;5117045;27;41022;-67
2023/08/12 07:48:46;;;;;;;6.82;5.47;;;;;;;;;;5112059;27;41623;-66
2023/08/12 07:51:14;;;;;;;7.13;5.35;;;;;;;;;;5109288;27;42037;-71
2023/08/12 07:53:42;;;;;;;7.43;5.35;;;;;;;;;;5109658;27;41220;-71
2023/08/12 07:56:10;;;;;;;6.50;5.60;;;;;;;;;;5116890;27;41587;-70
2023/08/12 07:58:38;;;;;;;6.78;5.32;;;;;;;;;;5109312;27;42963;-67
2023/08/12 08:01:09;;;;;;;9.50;5.72;;;;;;;;;;5110438;27;42081;-66
2023/08/12 08:03:39;;;;;;;7.85;5.25;;;;;;;;;;5108426;27;43204;-68
2023/08/12 08:06:07;;;;;;;9.45;5.72;;;;;;;;;;5115213;27;42174;-67
2023/08/12 08:08:35;;;;;;;10.35;5.97;;;;;;;;;;5124955;27;41662;-67
2023/08/12 08:11:03;;;;;;;6.97;5.20;;;;;;;;;;5109774;27;42103;-66
2023/08/12 08:13:31;;;;;;;7.82;5.35;;;;;;;;;;5107757;27;41380;-66
2023/08/12 08:15:58;;;;;;;7.38;5.20;;;;;;;;;;5107576;28;42216;-65
2023/08/12 08:18:28;;;;;;;6.75;5.47;;;;;;;;;;5108431;27;42202;-67
2023/08/12 08:20:56;;;;;;;9.02;5.40;;;;;;;;;;5109835;27;40229;-67
2023/08/12 08:23:24;;;;;;;6.13;4.97;;;;;;;;;;5108862;27;41805;-67
2023/08/12 08:25:52;;;;;;;6.05;4.60;;;;;;;;;;5107757;27;41477;-65
2023/08/12 08:28:20;;;;;;;6.93;5.55;;;;;;;;;;5108785;27;41691;-65
2023/08/12 08:30:48;;;;;;;6.75;5.35;;;;;;;;;;5108253;27;41963;-65
2023/08/12 08:33:16;;;;;;;6.10;5.18;;;;;;;;;;5109320;27;41399;-67
2023/08/12 08:35:45;;;;;;;7.28;5.57;;;;;;;;;;5118043;27;41738;-68
2023/08/12 08:38:13;;;;;;;7.50;5.40;;;;;;;;;;5114887;27;43081;-65
2023/08/12 08:40:41;;;;;;;6.75;5.15;;;;;;;;;;5119476;27;40365;-66
2023/08/12 08:43:09;;;;;;;7.50;5.10;;;;;;;;;;5113164;27;42683;-66
2023/08/12 08:45:38;;;;;;;6.78;4.63;;;;;;;;;;5117109;27;41383;-66
2023/08/12 08:48:06;;;;;;;6.50;4.60;;;;;;;;;;5113664;27;41790;-67
2023/08/12 08:50:34;;;;;;;5.50;4.03;;;;;;;;;;5105554;28;41866;-65
2023/08/12 08:53:04;;;;;;;4.35;3.95;;;;;;;;;;5108217;27;41064;-65
2023/08/12 08:55:32;;;;;;;5.35;4.60;;;;;;;;;;5105545;28;42360;-65
2023/08/12 08:58:00;;;;;;;5.30;4.13;;;;;;;;;;5108733;27;41373;-65
2023/08/12 09:00:32;;;;;;;5.03;4.10;;;;;;;;;;5090329;28;41002;-65
2023/08/12 09:03:00;;;;;;;6.13;4.13;;;;;;;;;;5107921;27;41377;-65
2023/08/12 09:05:28;;;;;;;5.90;3.60;;;;;;;;;;5101565;27;39707;-68
2023/08/12 09:07:56;;;;;;;4.75;3.70;;;;;;;;;;5103157;28;41205;-63
2023/08/12 09:10:26;;;;;;;4.22;3.80;;;;;;;;;;5105615;27;41434;-72
2023/08/12 09:12:57;;;;;;;8.88;3.50;;;;;;;;;;5107702;27;39903;-64
2023/08/12 09:15:25;;;;;;;4.25;3.10;;;;;;;;;;5100659;27;40103;-65
2023/08/12 09:17:53;;;;;;;6.47;3.20;;;;;;;;;;5101725;27;42148;-65
2023/08/12 09:20:21;;;;;;;5.43;2.90;;;;;;;;;;5105418;27;40385;-65
2023/08/12 09:22:54;;;;;;;3.03;2.80;;;;;;;;;;5096994;27;41536;-65
2023/08/12 09:25:23;;;;;;;4.68;2.63;;;;;;;;;;5108264;27;42101;-66
2023/08/12 09:27:53;;;;;;;2.90;2.60;;;;;;;;;;5105086;27;42364;-66
2023/08/12 09:30:21;;;;;;;3.15;2.75;;;;;;;;;;5112032;27;41724;-65
2023/08/12 09:32:57;;;;;;;3.45;2.90;;;;;;;;;;5106715;27;39967;-65
2023/08/12 09:35:25;;;;;;;3.15;2.40;;;;;;;;;;5108774;27;41727;-66
2023/08/12 09:37:53;;;;;;;3.10;2.80;;;;;;;;;;5113943;27;42127;-65
2023/08/12 09:40:21;;;;;;;2.95;2.65;;;;;;;;;;5105783;27;41310;-66
2023/08/12 09:42:49;;;;;;;3.08;2.55;;;;;;;;;;5106266;27;41283;-65
2023/08/12 09:45:20;;;;;;;3.80;2.88;;;;;;;;;;5104323;27;42032;-65
2023/08/12 09:47:48;;;;;;;2.95;2.33;;;;;;;;;;5106861;27;40984;-64
2023/08/12 09:50:16;;;;;;;4.03;2.30;;;;;;;;;;5104578;27;42032;-66
2023/08/12 09:52:44;;;;;;;2.83;2.53;;;;;;;;;;5107046;27;40426;-67
2023/08/12 09:55:13;;;;;;;5.13;2.47;;;;;;;;;;5107132;27;41760;-66
2023/08/12 09:57:42;;;;;;;3.25;2.47;;;;;;;;;;5105714;27;42404;-66
2023/08/12 10:00:12;;;;;;;3.88;2.47;;;;;;;;;;5107401;27;40194;-65
2023/08/12 10:02:45;;;;;;;5.25;2.40;;;;;;;;;;5102272;28;41665;-66
2023/08/12 10:05:13;;;;;;;2.90;2.50;;;;;;;;;;5106299;27;43191;-67
2023/08/12 10:07:41;;;;;;;2.72;2.53;;;;;;;;;;5104607;27;41075;-67
2023/08/12 10:10:09;;;;;;;2.50;2.30;;;;;;;;;;5107937;27;42615;-65
2023/08/12 10:12:37;;;;;;;4.88;2.20;;;;;;;;;;5103525;27;41329;-66
2023/08/12 10:15:06;;;;;;;2.28;2.08;;;;;;;;;;5086708;28;42252;-66
2023/08/12 10:17:34;;;;;;;2.05;1.92;;;;;;;;;;5093662;28;42436;-66
2023/08/12 10:20:13;;;;;;;2.88;2.00;;;;;;;;;;5106874;27;40918;-65
2023/08/12 10:22:41;;;;;;;1.95;1.85;;;;;;;;;;5106375;27;41379;-65
2023/08/12 10:25:09;;;;;;;2.42;1.80;;;;;;;;;;5106750;27;43815;-67
2023/08/12 10:27:37;;;;;;;1.85;1.58;;;;;;;;;;5103974;27;40453;-67
2023/08/12 10:30:05;;;;;;;2.88;1.50;;;;;;;;;;5094659;27;41659;-66
2023/08/12 10:32:33;;;;;;;1.25;1.15;;;;;;;;;;5104061;27;42187;-70
2023/08/12 10:35:02;;;;;;;1.50;1.35;;;;;;;;;;5106695;27;41157;-70
2023/08/12 10:37:33;;;;;;;1.30;1.00;;;;;;;;;;5103615;27;42737;-70
2023/08/12 10:40:03;;;;;;;0.95;0.85;;;;;;;;;;5106145;27;41590;-71
2023/08/12 10:42:40;;;;;;;1.25;0.80;;;;;;;;;;5105244;27;42700;-70
2023/08/12 10:45:09;;;;;;;2.35;0.90;;;;;;;;;;5107573;27;41909;-73
2023/08/12 10:47:40;;;;;;;2.08;0.95;;;;;;;;;;5105492;27;39958;-68
2023/08/12 10:50:17;;;;;;;5.43;0.82;;;;;;;;;;5088456;27;41236;-64
2023/08/12 10:52:46;;;;;;;2.58;0.80;;;;;;;;;;5098897;28;43407;-66
2023/08/12 10:55:17;;;;;;;2.15;0.60;;;;;;;;;;5101948;27;41737;-67
2023/08/12 10:57:45;;;;;;;1.77;0.50;;;;;;;;;;5107711;27;43360;-66
2023/08/12 11:00:14;;;;;;;2.30;0.80;;;;;;;;;;5108195;27;41423;-66
2023/08/12 11:02:45;;;;;;;2.58;0.70;;;;;;;;;;5108873;27;42021;-66
2023/08/12 11:05:13;;;;;;;3.00;0.70;;;;;;;;;;5103386;27;42691;-67
2023/08/12 11:07:41;;;;;;;1.75;0.50;;;;;;;;;;5108596;27;40740;-69
2023/08/12 11:10:14;;;;;;;1.60;0.40;;;;;;;;;;5110667;27;41691;-67
2023/08/12 11:12:43;;;;;;;0.50;0.50;;;;;;;;;;5109141;27;42473;-67
2023/08/12 11:15:11;;;;;;;1.00;0.60;;;;;;;;;;5126998;27;41251;-66
2023/08/12 11:17:40;;;;;;;3.78;0.63;;;;;;;;;;5089475;28;42839;-66
2023/08/12 11:20:09;;;;;;;0.65;0.60;;;;;;;;;;5089286;28;41360;-65
2023/08/12 11:22:40;;;;;;;2.45;0.85;;;;;;;;;;5087605;28;41728;-64
2023/08/12 11:25:09;;;;;;;1.10;1.00;;;;;;;;;;5093565;27;42644;-66
2023/08/12 11:27:39;;;;;;;1.75;1.27;;;;;;;;;;5111764;27;40037;-65
2023/08/12 11:30:07;;;;;;;3.90;2.08;;;;;;;;;;5108911;27;41751;-65
2023/08/12 11:32:35;;;;;;;2.58;1.60;;;;;;;;;;5108387;27;40762;-65
2023/08/12 11:35:05;;;;;;;1.75;1.55;;;;;;;;;;5110029;27;41407;-65
2023/08/12 11:37:33;;;;;;;4.90;2.58;;;;;;;;;;5107465;27;40390;-65
2023/08/12 11:40:02;;;;;;;2.13;1.92;;;;;;;;;;5109519;27;39841;-66
2023/08/12 11:42:30;;;;;;;3.78;2.47;;;;;;;;;;5108667;27;41191;-66
2023/08/12 11:45:00;;;;;;;3.20;2.90;;;;;;;;;;5109272;27;42942;-66
2023/08/12 11:47:28;;;;;;;2.78;2.50;;;;;;;;;;5108431;27;40525;-66
2023/08/12 11:49:56;;;;;;;3.10;2.53;;;;;;;;;;5108503;27;41798;-68
2023/08/12 11:52:24;;;;;;;5.20;2.55;;;;;;;;;;5108034;27;42061;-67
2023/08/12 11:54:52;;;;;;;3.92;2.65;;;;;;;;;;5108714;27;41813;-67
2023/08/12 11:57:20;;;;;;;4.97;2.30;;;;;;;;;;5108512;27;41095;-67
2023/08/12 11:59:48;;;;;;;2.53;1.73;;;;;;;;;;5109419;27;43295;-66
2023/08/12 12:02:17;;;;;;;2.72;2.10;;;;;;;;;;5109406;27;42659;-66
2023/08/12 12:04:45;;;;;;;3.22;1.63;;;;;;;;;;5108260;27;41878;-66
2023/08/12 12:07:19;;;;;;;3.28;1.30;;;;;;;;;;5109320;27;39858;-66
2023/08/12 12:09:47;;;;;;;2.90;1.85;;;;;;;;;;5108809;27;42645;-66
2023/08/12 12:12:15;;;;;;;4.65;1.60;;;;;;;;;;5108448;27;41323;-66
2023/08/12 12:14:43;;;;;;;4.40;1.38;;;;;;;;;;5109006;27;40394;-66
2023/08/12 12:17:13;;;;;;;2.45;1.50;;;;;;;;;;5108830;27;41690;-66
2023/08/12 12:19:42;;;;;;;3.35;1.60;;;;;;;;;;5107239;27;42077;-66
2023/08/12 12:22:10;;;;;;;2.33;1.30;;;;;;;;;;5109037;27;40796;-66
2023/08/12 12:24:44;;;;;;;3.15;1.48;;;;;;;;;;5107622;27;42074;-66
2023/08/12 12:27:12;;;;;;;4.03;1.60;;;;;;;;;;5108972;27;40646;-66
2023/08/12 12:29:40;;;;;;;3.40;1.42;;;;;;;;;;5107966;27;41492;-66
2023/08/12 12:32:08;;;;;;;5.43;2.15;;;;;;;;;;5107804;27;43185;-66
2023/08/12 12:34:37;;;;;;;3.40;1.35;;;;;;;;;;5108005;27;40467;-67
2023/08/12 12:37:06;;;;;;;13.45;1.77;;;;;;;;;;5109096;27;42220;-65
2023/08/12 12:39:34;;;;;;;4.95;1.60;;;;;;;;;;5107429;27;42608;-71
2023/08/12 12:42:02;;;;;;;9.10;2.15;;;;;;;;;;5108230;27;41447;-64
2023/08/12 12:44:30;;;;;;;6.25;1.70;;;;;;;;;;5108556;27;42545;-65
2023/08/12 12:46:58;;;;;;;3.13;1.65;;;;;;;;;;5108202;27;41275;-65
2023/08/12 12:49:28;;;;;;;5.45;1.90;;;;;;;;;;5108077;27;41138;-65
2023/08/12 12:51:56;;;;;;;5.55;2.05;;;;;;;;;;5108294;27;43188;-65
2023/08/12 12:54:25;;;;;;;9.80;1.98;;;;;;;;;;5107335;27;39999;-65
2023/08/12 12:56:53;;;;;;;8.93;1.70;;;;;;;;;;5108206;27;41594;-65
2023/08/12 12:59:21;;;;;;;7.00;1.85;;;;;;;;;;5101723;27;43051;-65
2023/08/12 13:01:49;;;;;;;5.07;1.48;;;;;;;;;;5103122;27;40260;-65
2023/08/12 13:04:17;;;;;;;8.65;2.35;;;;;;;;;;5115661;27;41579;-65
2023/08/12 13:06:45;;;;;;;4.88;1.77;;;;;;;;;;5107472;27;40830;-65
2023/08/12 13:09:13;;;;;;;6.63;2.17;;;;;;;;;;5113739;27;42116;-65
2023/08/12 13:11:42;;;;;;;6.70;2.70;;;;;;;;;;5106114;27;42074;-66
2023/08/12 13:14:10;;;;;;;4.32;1.52;;;;;;;;;;5106988;27;41262;-65
2023/08/12 13:16:38;;;;;;;5.38;1.80;;;;;;;;;;5105271;27;42094;-65
2023/08/12 13:19:06;;;;;;;4.70;1.83;;;;;;;;;;5108015;27;43078;-65
2023/08/12 13:21:34;;;;;;;5.30;2.00;;;;;;;;;;5103908;27;40345;-65
2023/08/12 13:24:03;;;;;;;9.50;2.30;;;;;;;;;;5109004;27;41374;-66
2023/08/12 13:26:31;;;;;;;3.63;1.83;;;;;;;;;;5105654;27;43138;-65
2023/08/12 13:29:01;;;;;;;5.47;1.60;;;;;;;;;;5106882;27;41149;-65
2023/08/12 13:31:28;;;;;;;4.60;2.00;;;;;;;;;;5097848;27;41668;-64
2023/08/12 13:33:57;;;;;;;5.05;2.00;;;;;;;;;;5101178;28;41712;-70
2023/08/12 13:36:25;;;;;;;9.05;2.22;;;;;;;;;;5105837;27;41082;-69
2023/08/12 13:38:53;;;;;;;9.65;1.88;;;;;;;;;;5107358;27;41968;-69
2023/08/12 13:41:21;;;;;;;6.63;2.20;;;;;;;;;;5086158;28;41038;-69
2023/08/12 13:43:49;;;;;;;4.28;2.00;;;;;;;;;;5095234;28;41008;-69
2023/08/12 13:46:19;;;;;;;8.05;1.95;;;;;;;;;;5104930;27;42123;-69
2023/08/12 13:48:47;;;;;;;6.45;1.90;;;;;;;;;;5107178;27;39956;-69
2023/08/12 13:51:15;;;;;;;5.70;2.33;;;;;;;;;;5105860;27;43200;-69
2023/08/12 13:53:43;;;;;;;4.53;1.75;;;;;;;;;;5111879;27;40598;-69
2023/08/12 13:56:11;;;;;;;6.32;2.10;;;;;;;;;;5105650;27;41855;-68
2023/08/12 13:58:39;;;;;;;4.75;1.92;;;;;;;;;;5105058;27;42161;-68
2023/08/12 14:01:08;;;;;;;4.22;1.60;;;;;;;;;;5106667;27;40277;-69
2023/08/12 14:03:38;;;;;;;4.85;2.10;;;;;;;;;;5105545;27;41645;-69
2023/08/12 14:06:06;;;;;;;9.23;2.38;;;;;;;;;;5113230;27;41537;-69
2023/08/12 14:08:34;;;;;;;7.40;2.60;;;;;;;;;;5106723;27;41015;-68
2023/08/12 14:11:02;;;;;;;6.80;1.73;;;;;;;;;;5107280;27;42752;-68
2023/08/12 14:13:30;;;;;;;4.07;2.00;;;;;;;;;;5106614;27;41273;-68
2023/08/12 14:15:58;;;;;;;8.00;2.33;;;;;;;;;;5107834;27;41201;-68
2023/08/12 14:18:26;;;;;;;4.38;1.80;;;;;;;;;;5106225;27;41764;-68
2023/08/12 14:20:56;;;;;;;5.03;2.08;;;;;;;;;;5087789;27;39983;-68
2023/08/12 14:23:24;;;;;;;9.23;2.42;;;;;;;;;;5106547;27;41008;-67
2023/08/12 14:25:52;;;;;;;4.68;1.80;;;;;;;;;;5106572;27;43143;-67
2023/08/12 14:28:20;;;;;;;9.63;3.05;;;;;;;;;;5106739;27;40880;-68
2023/08/12 14:30:48;;;;;;;8.30;2.22;;;;;;;;;;5106591;27;41571;-67
2023/08/12 14:33:16;;;;;;;6.05;1.95;;;;;;;;;;5109100;27;41723;-67
2023/08/12 14:35:44;;;;;;;6.85;2.28;;;;;;;;;;5110521;27;41737;-66
2023/08/12 14:38:13;;;;;;;4.55;1.73;;;;;;;;;;5109981;27;42035;-65
2023/08/12 14:40:41;;;;;;;5.22;1.67;;;;;;;;;;5109326;27;40207;-67
2023/08/12 14:43:09;;;;;;;4.53;1.90;;;;;;;;;;5110322;27;41067;-67
2023/08/12 14:45:37;;;;;;;6.35;1.85;;;;;;;;;;5108480;27;41213;-68
2023/08/12 14:48:05;;;;;;;7.05;2.05;;;;;;;;;;5113576;27;40953;-66
2023/08/12 14:50:34;;;;;;;4.97;1.75;;;;;;;;;;5119636;27;41423;-66
2023/08/12 14:53:02;;;;;;;6.00;1.98;;;;;;;;;;5114907;27;41998;-66